sensor_id;sensor_type;location;lat;lon;timestamp;P1;durP1;ratioP1;P2;durP2;ratioP2
16330;SDS011;8275;48.206;16.340;2023-07-16T00:00:41;5.22;;;4.72;;
16330;SDS011;8275;48.206;16.340;2023-07-16T00:03:11;7.50;;;4.35;;
16330;SDS011;8275;48.206;16.340;2023-07-16T00:05:41;4.72;;;4.32;;
16330;SDS011;8275;48.206;16.340;2023-07-16T00:08:09;6.22;;;4.63;;
16330;SDS011;8275;48.206;16.340;2023-07-16T00:10:38;4.30;;;4.00;;
16330;SDS011;8275;48.206;16.340;2023-07-16T00:13:06;5.20;;;4.70;;
16330;SDS011;8275;48.206;16.340;2023-07-16T00:15:35;4.72;;;4.22;;
16330;SDS011;8275;48.206;16.340;2023-07-16T00:18:03;10.75;;;9.73;;
16330;SDS011;8275;48.206;16.340;2023-07-16T00:20:34;5.03;;;4.63;;
16330;SDS011;8275;48.206;16.340;2023-07-16T00:23:02;8.85;;;3.97;;
16330;SDS011;8275;48.206;16.340;2023-07-16T00:25:31;5.07;;;4.50;;
16330;SDS011;8275;48.206;16.340;2023-07-16T00:28:01;5.00;;;3.80;;
16330;SDS011;8275;48.206;16.340;2023-07-16T00:30:30;6.53;;;4.72;;
16330;SDS011;8275;48.206;16.340;2023-07-16T00:32:59;7.38;;;5.15;;
16330;SDS011;8275;48.206;16.340;2023-07-16T00:35:27;5.15;;;4.65;;
16330;SDS011;8275;48.206;16.340;2023-07-16T00:37:57;5.80;;;4.13;;
16330;SDS011;8275;48.206;16.340;2023-07-16T00:40:26;4.65;;;4.25;;
16330;SDS011;8275;48.206;16.340;2023-07-16T00:42:55;5.00;;;4.50;;
16330;SDS011;8275;48.206;16.340;2023-07-16T00:45:23;6.18;;;4.75;;
16330;SDS011;8275;48.206;16.340;2023-07-16T00:47:52;4.38;;;3.97;;
16330;SDS011;8275;48.206;16.340;2023-07-16T00:50:21;6.47;;;4.47;;
16330;SDS011;8275;48.206;16.340;2023-07-16T00:52:49;8.63;;;7.32;;
16330;SDS011;8275;48.206;16.340;2023-07-16T00:55:20;8.77;;;6.00;;
16330;SDS011;8275;48.206;16.340;2023-07-16T00:57:48;5.38;;;4.88;;
16330;SDS011;8275;48.206;16.340;2023-07-16T01:00:17;6.13;;;5.13;;
16330;SDS011;8275;48.206;16.340;2023-07-16T01:02:45;6.28;;;4.70;;
16330;SDS011;8275;48.206;16.340;2023-07-16T01:05:14;6.75;;;4.82;;
16330;SDS011;8275;48.206;16.340;2023-07-16T01:07:45;7.35;;;4.75;;
16330;SDS011;8275;48.206;16.340;2023-07-16T01:10:23;5.93;;;5.07;;
16330;SDS011;8275;48.206;16.340;2023-07-16T01:12:55;4.72;;;4.32;;
16330;SDS011;8275;48.206;16.340;2023-07-16T01:15:25;6.25;;;4.55;;
16330;SDS011;8275;48.206;16.340;2023-07-16T01:17:53;5.25;;;4.75;;
16330;SDS011;8275;48.206;16.340;2023-07-16T01:20:21;7.43;;;5.57;;
16330;SDS011;8275;48.206;16.340;2023-07-16T01:22:59;7.78;;;4.82;;
16330;SDS011;8275;48.206;16.340;2023-07-16T01:26:00;6.28;;;5.07;;
16330;SDS011;8275;48.206;16.340;2023-07-16T01:28:44;7.57;;;4.32;;
16330;SDS011;8275;48.206;16.340;2023-07-16T01:31:35;5.65;;;4.68;;
16330;SDS011;8275;48.206;16.340;2023-07-16T01:34:04;7.18;;;4.53;;
16330;SDS011;8275;48.206;16.340;2023-07-16T01:36:33;6.85;;;4.13;;
16330;SDS011;8275;48.206;16.340;2023-07-16T01:39:03;6.43;;;4.22;;
16330;SDS011;8275;48.206;16.340;2023-07-16T01:41:32;5.93;;;4.57;;
16330;SDS011;8275;48.206;16.340;2023-07-16T01:44:01;4.28;;;3.53;;
16330;SDS011;8275;48.206;16.340;2023-07-16T01:46:31;6.80;;;4.38;;
16330;SDS011;8275;48.206;16.340;2023-07-16T01:49:00;5.40;;;4.35;;
16330;SDS011;8275;48.206;16.340;2023-07-16T01:51:28;5.97;;;4.65;;
16330;SDS011;8275;48.206;16.340;2023-07-16T01:53:57;6.10;;;5.25;;
16330;SDS011;8275;48.206;16.340;2023-07-16T01:56:26;4.70;;;4.22;;
16330;SDS011;8275;48.206;16.340;2023-07-16T01:58:54;6.07;;;4.90;;
16330;SDS011;8275;48.206;16.340;2023-07-16T02:01:22;5.70;;;4.78;;
16330;SDS011;8275;48.206;16.340;2023-07-16T02:03:53;8.10;;;5.25;;
16330;SDS011;8275;48.206;16.340;2023-07-16T02:06:21;4.65;;;4.32;;
16330;SDS011;8275;48.206;16.340;2023-07-16T02:08:50;7.47;;;4.90;;
16330;SDS011;8275;48.206;16.340;2023-07-16T02:11:18;10.70;;;5.45;;
16330;SDS011;8275;48.206;16.340;2023-07-16T02:13:47;4.85;;;4.22;;
16330;SDS011;8275;48.206;16.340;2023-07-16T02:16:16;6.13;;;5.15;;
16330;SDS011;8275;48.206;16.340;2023-07-16T02:18:45;4.90;;;4.22;;
16330;SDS011;8275;48.206;16.340;2023-07-16T02:21:14;4.85;;;4.15;;
16330;SDS011;8275;48.206;16.340;2023-07-16T02:23:43;6.00;;;4.85;;
16330;SDS011;8275;48.206;16.340;2023-07-16T02:26:12;5.55;;;5.00;;
16330;SDS011;8275;48.206;16.340;2023-07-16T02:28:41;5.38;;;4.97;;
16330;SDS011;8275;48.206;16.340;2023-07-16T02:31:09;14.13;;;5.43;;
16330;SDS011;8275;48.206;16.340;2023-07-16T02:33:38;5.28;;;4.88;;
16330;SDS011;8275;48.206;16.340;2023-07-16T02:36:06;6.22;;;4.75;;
16330;SDS011;8275;48.206;16.340;2023-07-16T02:38:36;5.40;;;5.00;;
16330;SDS011;8275;48.206;16.340;2023-07-16T02:41:05;6.38;;;4.53;;
16330;SDS011;8275;48.206;16.340;2023-07-16T02:43:33;5.70;;;4.93;;
16330;SDS011;8275;48.206;16.340;2023-07-16T02:46:02;6.18;;;5.38;;
16330;SDS011;8275;48.206;16.340;2023-07-16T02:48:30;5.45;;;4.40;;
16330;SDS011;8275;48.206;16.340;2023-07-16T02:50:59;7.95;;;5.10;;
16330;SDS011;8275;48.206;16.340;2023-07-16T02:53:27;5.22;;;4.47;;
16330;SDS011;8275;48.206;16.340;2023-07-16T02:55:57;5.00;;;4.38;;
16330;SDS011;8275;48.206;16.340;2023-07-16T02:58:26;5.78;;;5.22;;
16330;SDS011;8275;48.206;16.340;2023-07-16T03:00:54;5.05;;;4.55;;
16330;SDS011;8275;48.206;16.340;2023-07-16T03:03:23;5.30;;;4.80;;
16330;SDS011;8275;48.206;16.340;2023-07-16T03:06:00;5.97;;;5.40;;
16330;SDS011;8275;48.206;16.340;2023-07-16T03:08:28;4.78;;;4.38;;
16330;SDS011;8275;48.206;16.340;2023-07-16T03:10:59;5.47;;;4.97;;
16330;SDS011;8275;48.206;16.340;2023-07-16T03:13:28;6.72;;;5.18;;
16330;SDS011;8275;48.206;16.340;2023-07-16T03:15:56;5.78;;;5.20;;
16330;SDS011;8275;48.206;16.340;2023-07-16T03:18:27;5.45;;;4.95;;
16330;SDS011;8275;48.206;16.340;2023-07-16T03:20:57;5.75;;;5.00;;
16330;SDS011;8275;48.206;16.340;2023-07-16T03:23:25;5.28;;;4.88;;
16330;SDS011;8275;48.206;16.340;2023-07-16T03:25:54;6.32;;;5.72;;
16330;SDS011;8275;48.206;16.340;2023-07-16T03:28:24;5.65;;;5.18;;
16330;SDS011;8275;48.206;16.340;2023-07-16T03:30:52;6.05;;;5.55;;
16330;SDS011;8275;48.206;16.340;2023-07-16T03:33:21;5.97;;;5.40;;
16330;SDS011;8275;48.206;16.340;2023-07-16T03:35:50;6.88;;;6.30;;
16330;SDS011;8275;48.206;16.340;2023-07-16T03:38:19;6.32;;;5.50;;
16330;SDS011;8275;48.206;16.340;2023-07-16T03:40:48;8.13;;;5.97;;
16330;SDS011;8275;48.206;16.340;2023-07-16T03:43:17;6.00;;;5.18;;
16330;SDS011;8275;48.206;16.340;2023-07-16T03:45:47;5.05;;;4.65;;
16330;SDS011;8275;48.206;16.340;2023-07-16T03:48:17;6.32;;;5.72;;
16330;SDS011;8275;48.206;16.340;2023-07-16T03:50:46;7.88;;;7.18;;
16330;SDS011;8275;48.206;16.340;2023-07-16T03:53:15;7.82;;;7.10;;
16330;SDS011;8275;48.206;16.340;2023-07-16T03:55:43;10.02;;;7.00;;
16330;SDS011;8275;48.206;16.340;2023-07-16T03:58:12;5.53;;;5.13;;
16330;SDS011;8275;48.206;16.340;2023-07-16T04:00:40;8.95;;;6.85;;
16330;SDS011;8275;48.206;16.340;2023-07-16T04:03:11;7.00;;;6.40;;
16330;SDS011;8275;48.206;16.340;2023-07-16T04:05:40;6.63;;;6.03;;
16330;SDS011;8275;48.206;16.340;2023-07-16T04:08:09;6.45;;;5.85;;
16330;SDS011;8275;48.206;16.340;2023-07-16T04:10:37;8.02;;;7.30;;
16330;SDS011;8275;48.206;16.340;2023-07-16T04:13:06;7.47;;;6.82;;
16330;SDS011;8275;48.206;16.340;2023-07-16T04:15:34;6.47;;;5.90;;
16330;SDS011;8275;48.206;16.340;2023-07-16T04:18:03;7.68;;;7.07;;
16330;SDS011;8275;48.206;16.340;2023-07-16T04:20:33;6.80;;;6.07;;
16330;SDS011;8275;48.206;16.340;2023-07-16T04:23:01;7.75;;;6.55;;
16330;SDS011;8275;48.206;16.340;2023-07-16T04:25:30;8.05;;;6.75;;
16330;SDS011;8275;48.206;16.340;2023-07-16T04:27:58;8.30;;;6.70;;
16330;SDS011;8275;48.206;16.340;2023-07-16T04:30:30;7.97;;;6.43;;
16330;SDS011;8275;48.206;16.340;2023-07-16T04:32:59;10.98;;;7.20;;
16330;SDS011;8275;48.206;16.340;2023-07-16T04:35:28;7.45;;;6.85;;
16330;SDS011;8275;48.206;16.340;2023-07-16T04:37:58;7.90;;;6.45;;
16330;SDS011;8275;48.206;16.340;2023-07-16T04:40:26;6.53;;;6.00;;
16330;SDS011;8275;48.206;16.340;2023-07-16T04:42:56;7.07;;;6.35;;
16330;SDS011;8275;48.206;16.340;2023-07-16T04:45:24;6.82;;;5.32;;
16330;SDS011;8275;48.206;16.340;2023-07-16T04:47:53;6.90;;;6.30;;
16330;SDS011;8275;48.206;16.340;2023-07-16T04:50:21;6.75;;;6.18;;
16330;SDS011;8275;48.206;16.340;2023-07-16T04:52:50;6.65;;;5.13;;
16330;SDS011;8275;48.206;16.340;2023-07-16T04:55:20;6.47;;;5.88;;
16330;SDS011;8275;48.206;16.340;2023-07-16T04:57:48;10.25;;;6.25;;
16330;SDS011;8275;48.206;16.340;2023-07-16T05:00:20;6.18;;;5.60;;
16330;SDS011;8275;48.206;16.340;2023-07-16T05:02:48;9.93;;;6.18;;
16330;SDS011;8275;48.206;16.340;2023-07-16T05:05:17;7.90;;;6.05;;
16330;SDS011;8275;48.206;16.340;2023-07-16T05:07:46;6.75;;;6.25;;
16330;SDS011;8275;48.206;16.340;2023-07-16T05:10:14;12.25;;;6.55;;
16330;SDS011;8275;48.206;16.340;2023-07-16T05:12:44;6.47;;;5.75;;
16330;SDS011;8275;48.206;16.340;2023-07-16T05:15:13;6.13;;;5.63;;
16330;SDS011;8275;48.206;16.340;2023-07-16T05:17:42;6.43;;;5.80;;
16330;SDS011;8275;48.206;16.340;2023-07-16T05:20:11;5.95;;;5.43;;
16330;SDS011;8275;48.206;16.340;2023-07-16T05:22:39;5.70;;;5.20;;
16330;SDS011;8275;48.206;16.340;2023-07-16T05:25:08;7.70;;;6.15;;
16330;SDS011;8275;48.206;16.340;2023-07-16T05:27:37;17.45;;;7.68;;
16330;SDS011;8275;48.206;16.340;2023-07-16T05:30:08;7.60;;;6.47;;
16330;SDS011;8275;48.206;16.340;2023-07-16T05:32:37;7.60;;;6.90;;
16330;SDS011;8275;48.206;16.340;2023-07-16T05:35:06;7.40;;;6.80;;
16330;SDS011;8275;48.206;16.340;2023-07-16T05:37:35;7.85;;;7.05;;
16330;SDS011;8275;48.206;16.340;2023-07-16T05:40:04;7.18;;;6.57;;
16330;SDS011;8275;48.206;16.340;2023-07-16T05:42:35;7.65;;;6.97;;
16330;SDS011;8275;48.206;16.340;2023-07-16T05:45:04;7.72;;;6.40;;
16330;SDS011;8275;48.206;16.340;2023-07-16T05:47:35;6.35;;;5.80;;
16330;SDS011;8275;48.206;16.340;2023-07-16T05:50:04;8.00;;;6.13;;
16330;SDS011;8275;48.206;16.340;2023-07-16T05:52:34;7.32;;;6.63;;
16330;SDS011;8275;48.206;16.340;2023-07-16T05:55:03;6.75;;;6.32;;
16330;SDS011;8275;48.206;16.340;2023-07-16T05:57:32;7.57;;;6.88;;
16330;SDS011;8275;48.206;16.340;2023-07-16T06:00:01;6.50;;;6.00;;
16330;SDS011;8275;48.206;16.340;2023-07-16T06:02:31;7.53;;;6.90;;
16330;SDS011;8275;48.206;16.340;2023-07-16T06:05:01;7.28;;;6.68;;
16330;SDS011;8275;48.206;16.340;2023-07-16T06:07:31;6.82;;;6.22;;
16330;SDS011;8275;48.206;16.340;2023-07-16T06:09:59;7.38;;;6.68;;
16330;SDS011;8275;48.206;16.340;2023-07-16T06:12:28;7.00;;;6.20;;
16330;SDS011;8275;48.206;16.340;2023-07-16T06:14:57;6.22;;;5.75;;
16330;SDS011;8275;48.206;16.340;2023-07-16T06:17:26;6.45;;;6.00;;
16330;SDS011;8275;48.206;16.340;2023-07-16T06:19:54;6.38;;;5.80;;
16330;SDS011;8275;48.206;16.340;2023-07-16T06:22:25;5.85;;;5.40;;
16330;SDS011;8275;48.206;16.340;2023-07-16T06:24:54;6.63;;;6.03;;
16330;SDS011;8275;48.206;16.340;2023-07-16T06:27:22;8.10;;;7.30;;
16330;SDS011;8275;48.206;16.340;2023-07-16T06:29:51;6.88;;;6.28;;
16330;SDS011;8275;48.206;16.340;2023-07-16T06:32:19;6.38;;;5.88;;
16330;SDS011;8275;48.206;16.340;2023-07-16T06:34:48;7.40;;;6.60;;
16330;SDS011;8275;48.206;16.340;2023-07-16T06:37:17;6.85;;;6.18;;
16330;SDS011;8275;48.206;16.340;2023-07-16T06:39:47;7.30;;;6.60;;
16330;SDS011;8275;48.206;16.340;2023-07-16T06:42:15;6.65;;;5.97;;
16330;SDS011;8275;48.206;16.340;2023-07-16T06:44:44;7.18;;;6.57;;
16330;SDS011;8275;48.206;16.340;2023-07-16T06:47:12;13.93;;;8.15;;
16330;SDS011;8275;48.206;16.340;2023-07-16T06:49:41;8.07;;;5.93;;
16330;SDS011;8275;48.206;16.340;2023-07-16T06:52:18;8.15;;;7.35;;
16330;SDS011;8275;48.206;16.340;2023-07-16T06:54:48;6.78;;;6.28;;
16330;SDS011;8275;48.206;16.340;2023-07-16T06:57:17;7.18;;;6.38;;
16330;SDS011;8275;48.206;16.340;2023-07-16T06:59:45;7.40;;;6.80;;
16330;SDS011;8275;48.206;16.340;2023-07-16T07:02:15;7.80;;;7.10;;
16330;SDS011;8275;48.206;16.340;2023-07-16T07:04:44;5.85;;;5.45;;
16330;SDS011;8275;48.206;16.340;2023-07-16T07:07:13;8.80;;;7.10;;
16330;SDS011;8275;48.206;16.340;2023-07-16T07:09:41;6.63;;;6.05;;
16330;SDS011;8275;48.206;16.340;2023-07-16T07:12:11;6.05;;;5.40;;
16330;SDS011;8275;48.206;16.340;2023-07-16T07:14:40;7.47;;;5.80;;
16330;SDS011;8275;48.206;16.340;2023-07-16T07:17:08;5.60;;;5.10;;
16330;SDS011;8275;48.206;16.340;2023-07-16T07:19:37;6.63;;;5.78;;
16330;SDS011;8275;48.206;16.340;2023-07-16T07:22:05;6.25;;;5.43;;
16330;SDS011;8275;48.206;16.340;2023-07-16T07:24:34;11.05;;;5.88;;
16330;SDS011;8275;48.206;16.340;2023-07-16T07:27:03;5.85;;;5.13;;
16330;SDS011;8275;48.206;16.340;2023-07-16T07:29:34;7.63;;;5.55;;
16330;SDS011;8275;48.206;16.340;2023-07-16T07:32:02;5.68;;;5.05;;
16330;SDS011;8275;48.206;16.340;2023-07-16T07:34:31;6.18;;;5.20;;
16330;SDS011;8275;48.206;16.340;2023-07-16T07:37:00;5.47;;;4.30;;
16330;SDS011;8275;48.206;16.340;2023-07-16T07:39:29;5.55;;;5.05;;
16330;SDS011;8275;48.206;16.340;2023-07-16T07:41:57;5.90;;;5.20;;
16330;SDS011;8275;48.206;16.340;2023-07-16T07:44:26;5.00;;;4.60;;
16330;SDS011;8275;48.206;16.340;2023-07-16T07:46:55;7.63;;;4.88;;
16330;SDS011;8275;48.206;16.340;2023-07-16T07:49:24;3.78;;;3.53;;
16330;SDS011;8275;48.206;16.340;2023-07-16T07:51:53;14.48;;;4.43;;
16330;SDS011;8275;48.206;16.340;2023-07-16T07:54:21;5.28;;;4.10;;
16330;SDS011;8275;48.206;16.340;2023-07-16T07:56:50;3.50;;;3.20;;
16330;SDS011;8275;48.206;16.340;2023-07-16T07:59:18;9.57;;;3.65;;
16330;SDS011;8275;48.206;16.340;2023-07-16T08:01:47;3.55;;;3.35;;
16330;SDS011;8275;48.206;16.340;2023-07-16T08:04:17;3.55;;;2.95;;
16330;SDS011;8275;48.206;16.340;2023-07-16T08:06:45;3.85;;;3.42;;
16330;SDS011;8275;48.206;16.340;2023-07-16T08:09:14;4.63;;;3.72;;
16330;SDS011;8275;48.206;16.340;2023-07-16T08:11:43;4.30;;;3.70;;
16330;SDS011;8275;48.206;16.340;2023-07-16T08:14:11;3.50;;;3.30;;
16330;SDS011;8275;48.206;16.340;2023-07-16T08:16:40;4.15;;;3.80;;
16330;SDS011;8275;48.206;16.340;2023-07-16T08:19:08;11.73;;;4.35;;
16330;SDS011;8275;48.206;16.340;2023-07-16T08:21:38;4.40;;;4.00;;
16330;SDS011;8275;48.206;16.340;2023-07-16T08:24:07;4.20;;;3.80;;
16330;SDS011;8275;48.206;16.340;2023-07-16T08:26:35;4.28;;;4.03;;
16330;SDS011;8275;48.206;16.340;2023-07-16T08:29:04;4.30;;;3.70;;
16330;SDS011;8275;48.206;16.340;2023-07-16T08:31:32;4.25;;;3.60;;
16330;SDS011;8275;48.206;16.340;2023-07-16T08:34:01;4.10;;;3.80;;
16330;SDS011;8275;48.206;16.340;2023-07-16T08:36:30;4.15;;;3.75;;
16330;SDS011;8275;48.206;16.340;2023-07-16T08:39:01;4.00;;;3.70;;
16330;SDS011;8275;48.206;16.340;2023-07-16T08:41:30;5.93;;;3.80;;
16330;SDS011;8275;48.206;16.340;2023-07-16T08:43:59;4.25;;;3.85;;
16330;SDS011;8275;48.206;16.340;2023-07-16T08:46:28;6.30;;;4.28;;
16330;SDS011;8275;48.206;16.340;2023-07-16T08:48:57;3.63;;;3.42;;
16330;SDS011;8275;48.206;16.340;2023-07-16T08:51:27;4.30;;;3.88;;
16330;SDS011;8275;48.206;16.340;2023-07-16T08:53:57;4.55;;;4.13;;
16330;SDS011;8275;48.206;16.340;2023-07-16T08:56:27;4.18;;;3.78;;
16330;SDS011;8275;48.206;16.340;2023-07-16T08:58:56;4.60;;;4.07;;
16330;SDS011;8275;48.206;16.340;2023-07-16T09:01:26;3.80;;;3.50;;
16330;SDS011;8275;48.206;16.340;2023-07-16T09:03:55;3.80;;;3.55;;
16330;SDS011;8275;48.206;16.340;2023-07-16T09:06:24;3.67;;;3.38;;
16330;SDS011;8275;48.206;16.340;2023-07-16T09:08:53;4.63;;;3.42;;
16330;SDS011;8275;48.206;16.340;2023-07-16T09:11:21;3.53;;;3.22;;
16330;SDS011;8275;48.206;16.340;2023-07-16T09:13:51;3.50;;;3.30;;
16330;SDS011;8275;48.206;16.340;2023-07-16T09:16:20;4.22;;;3.25;;
16330;SDS011;8275;48.206;16.340;2023-07-16T09:18:49;4.25;;;3.20;;
16330;SDS011;8275;48.206;16.340;2023-07-16T09:21:17;4.20;;;3.85;;
16330;SDS011;8275;48.206;16.340;2023-07-16T09:23:46;4.70;;;3.63;;
16330;SDS011;8275;48.206;16.340;2023-07-16T09:26:17;4.28;;;3.85;;
16330;SDS011;8275;48.206;16.340;2023-07-16T09:28:47;7.88;;;3.78;;
16330;SDS011;8275;48.206;16.340;2023-07-16T09:31:17;3.63;;;3.40;;
16330;SDS011;8275;48.206;16.340;2023-07-16T09:33:46;5.75;;;3.45;;
16330;SDS011;8275;48.206;16.340;2023-07-16T09:36:22;3.88;;;3.67;;
16330;SDS011;8275;48.206;16.340;2023-07-16T09:38:52;3.92;;;3.63;;
16330;SDS011;8275;48.206;16.340;2023-07-16T09:41:22;4.00;;;3.60;;
16330;SDS011;8275;48.206;16.340;2023-07-16T09:43:52;4.78;;;4.38;;
16330;SDS011;8275;48.206;16.340;2023-07-16T09:46:22;4.05;;;3.75;;
16330;SDS011;8275;48.206;16.340;2023-07-16T09:48:51;4.10;;;3.80;;
16330;SDS011;8275;48.206;16.340;2023-07-16T09:51:19;4.20;;;3.90;;
16330;SDS011;8275;48.206;16.340;2023-07-16T09:53:50;4.28;;;3.78;;
16330;SDS011;8275;48.206;16.340;2023-07-16T09:56:21;3.30;;;3.05;;
16330;SDS011;8275;48.206;16.340;2023-07-16T09:58:50;4.40;;;3.92;;
16330;SDS011;8275;48.206;16.340;2023-07-16T10:01:20;4.40;;;3.95;;
16330;SDS011;8275;48.206;16.340;2023-07-16T10:03:50;4.65;;;3.33;;
16330;SDS011;8275;48.206;16.340;2023-07-16T10:06:19;3.80;;;3.53;;
16330;SDS011;8275;48.206;16.340;2023-07-16T10:08:49;4.78;;;3.58;;
16330;SDS011;8275;48.206;16.340;2023-07-16T10:11:18;3.72;;;3.42;;
16330;SDS011;8275;48.206;16.340;2023-07-16T10:13:50;3.75;;;3.33;;
16330;SDS011;8275;48.206;16.340;2023-07-16T10:16:22;4.30;;;3.75;;
16330;SDS011;8275;48.206;16.340;2023-07-16T10:18:54;3.97;;;3.63;;
16330;SDS011;8275;48.206;16.340;2023-07-16T10:21:27;4.25;;;3.78;;
16330;SDS011;8275;48.206;16.340;2023-07-16T10:24:04;4.80;;;3.47;;
16330;SDS011;8275;48.206;16.340;2023-07-16T10:26:44;3.47;;;3.28;;
16330;SDS011;8275;48.206;16.340;2023-07-16T10:29:13;3.80;;;3.40;;
16330;SDS011;8275;48.206;16.340;2023-07-16T10:31:43;4.07;;;3.67;;
16330;SDS011;8275;48.206;16.340;2023-07-16T10:34:13;3.58;;;3.28;;
16330;SDS011;8275;48.206;16.340;2023-07-16T10:36:42;3.78;;;3.58;;
16330;SDS011;8275;48.206;16.340;2023-07-16T10:39:16;3.85;;;3.17;;
16330;SDS011;8275;48.206;16.340;2023-07-16T10:41:45;3.80;;;3.30;;
16330;SDS011;8275;48.206;16.340;2023-07-16T10:44:14;5.13;;;3.80;;
16330;SDS011;8275;48.206;16.340;2023-07-16T10:46:44;3.97;;;3.67;;
16330;SDS011;8275;48.206;16.340;2023-07-16T10:49:12;4.78;;;4.13;;
16330;SDS011;8275;48.206;16.340;2023-07-16T10:51:41;4.68;;;4.32;;
16330;SDS011;8275;48.206;16.340;2023-07-16T10:54:09;4.15;;;3.75;;
16330;SDS011;8275;48.206;16.340;2023-07-16T10:56:38;3.85;;;3.55;;
16330;SDS011;8275;48.206;16.340;2023-07-16T10:59:09;3.58;;;3.38;;
16330;SDS011;8275;48.206;16.340;2023-07-16T11:01:38;3.50;;;3.30;;
16330;SDS011;8275;48.206;16.340;2023-07-16T11:04:09;3.20;;;2.90;;
16330;SDS011;8275;48.206;16.340;2023-07-16T11:06:38;4.10;;;3.65;;
16330;SDS011;8275;48.206;16.340;2023-07-16T11:09:06;3.47;;;3.22;;
16330;SDS011;8275;48.206;16.340;2023-07-16T11:11:36;4.88;;;3.90;;
16330;SDS011;8275;48.206;16.340;2023-07-16T11:14:07;3.35;;;3.15;;
16330;SDS011;8275;48.206;16.340;2023-07-16T11:16:36;3.60;;;3.40;;
16330;SDS011;8275;48.206;16.340;2023-07-16T11:19:06;3.90;;;3.55;;
16330;SDS011;8275;48.206;16.340;2023-07-16T11:21:36;3.88;;;3.67;;
16330;SDS011;8275;48.206;16.340;2023-07-16T11:24:09;3.85;;;3.58;;
16330;SDS011;8275;48.206;16.340;2023-07-16T11:26:49;2.85;;;2.65;;
16330;SDS011;8275;48.206;16.340;2023-07-16T11:29:18;4.43;;;4.07;;
16330;SDS011;8275;48.206;16.340;2023-07-16T11:31:48;4.72;;;4.30;;
16330;SDS011;8275;48.206;16.340;2023-07-16T11:34:19;4.68;;;3.33;;
16330;SDS011;8275;48.206;16.340;2023-07-16T11:36:50;3.05;;;2.85;;
16330;SDS011;8275;48.206;16.340;2023-07-16T11:39:19;3.38;;;3.05;;
16330;SDS011;8275;48.206;16.340;2023-07-16T11:41:53;4.07;;;3.78;;
16330;SDS011;8275;48.206;16.340;2023-07-16T11:44:25;3.97;;;3.30;;
16330;SDS011;8275;48.206;16.340;2023-07-16T11:46:58;3.30;;;3.10;;
16330;SDS011;8275;48.206;16.340;2023-07-16T11:49:27;2.80;;;2.55;;
16330;SDS011;8275;48.206;16.340;2023-07-16T11:51:57;6.20;;;5.70;;
16330;SDS011;8275;48.206;16.340;2023-07-16T11:54:27;4.32;;;4.07;;
16330;SDS011;8275;48.206;16.340;2023-07-16T11:56:55;3.63;;;3.33;;
16330;SDS011;8275;48.206;16.340;2023-07-16T11:59:24;3.42;;;3.13;;
16330;SDS011;8275;48.206;16.340;2023-07-16T12:01:52;3.50;;;3.30;;
16330;SDS011;8275;48.206;16.340;2023-07-16T12:04:21;3.88;;;3.67;;
16330;SDS011;8275;48.206;16.340;2023-07-16T12:06:50;3.38;;;3.17;;
16330;SDS011;8275;48.206;16.340;2023-07-16T12:09:20;3.45;;;3.25;;
16330;SDS011;8275;48.206;16.340;2023-07-16T12:11:48;3.20;;;3.05;;
16330;SDS011;8275;48.206;16.340;2023-07-16T12:14:17;3.33;;;3.13;;
16330;SDS011;8275;48.206;16.340;2023-07-16T12:16:45;3.75;;;3.45;;
16330;SDS011;8275;48.206;16.340;2023-07-16T12:19:14;3.42;;;3.22;;
16330;SDS011;8275;48.206;16.340;2023-07-16T12:21:43;3.22;;;3.03;;
16330;SDS011;8275;48.206;16.340;2023-07-16T12:24:11;4.15;;;3.35;;
16330;SDS011;8275;48.206;16.340;2023-07-16T12:26:41;4.15;;;3.45;;
16330;SDS011;8275;48.206;16.340;2023-07-16T12:29:10;2.67;;;2.58;;
16330;SDS011;8275;48.206;16.340;2023-07-16T12:31:38;3.45;;;3.25;;
16330;SDS011;8275;48.206;16.340;2023-07-16T12:34:07;3.10;;;2.90;;
16330;SDS011;8275;48.206;16.340;2023-07-16T12:36:36;3.53;;;3.22;;
16330;SDS011;8275;48.206;16.340;2023-07-16T12:39:04;3.72;;;3.53;;
16330;SDS011;8275;48.206;16.340;2023-07-16T12:41:33;3.70;;;3.50;;
16330;SDS011;8275;48.206;16.340;2023-07-16T12:44:03;5.43;;;3.63;;
16330;SDS011;8275;48.206;16.340;2023-07-16T12:46:31;3.17;;;2.88;;
16330;SDS011;8275;48.206;16.340;2023-07-16T12:49:00;3.92;;;3.53;;
16330;SDS011;8275;48.206;16.340;2023-07-16T12:51:29;3.47;;;3.20;;
16330;SDS011;8275;48.206;16.340;2023-07-16T12:53:57;3.38;;;2.85;;
16330;SDS011;8275;48.206;16.340;2023-07-16T12:56:27;3.30;;;3.10;;
16330;SDS011;8275;48.206;16.340;2023-07-16T12:58:57;3.20;;;3.00;;
16330;SDS011;8275;48.206;16.340;2023-07-16T13:01:27;3.35;;;2.90;;
16330;SDS011;8275;48.206;16.340;2023-07-16T13:03:57;2.92;;;2.72;;
16330;SDS011;8275;48.206;16.340;2023-07-16T13:06:26;2.92;;;2.72;;
16330;SDS011;8275;48.206;16.340;2023-07-16T13:08:55;4.38;;;3.75;;
16330;SDS011;8275;48.206;16.340;2023-07-16T13:11:25;4.57;;;3.17;;
16330;SDS011;8275;48.206;16.340;2023-07-16T13:13:55;3.28;;;3.00;;
16330;SDS011;8275;48.206;16.340;2023-07-16T13:16:24;3.08;;;2.88;;
16330;SDS011;8275;48.206;16.340;2023-07-16T13:18:54;3.53;;;3.30;;
16330;SDS011;8275;48.206;16.340;2023-07-16T13:21:23;4.05;;;3.30;;
16330;SDS011;8275;48.206;16.340;2023-07-16T13:23:52;3.05;;;2.85;;
16330;SDS011;8275;48.206;16.340;2023-07-16T13:26:22;3.13;;;2.92;;
16330;SDS011;8275;48.206;16.340;2023-07-16T13:28:51;4.55;;;3.38;;
16330;SDS011;8275;48.206;16.340;2023-07-16T13:31:20;2.80;;;2.60;;
16330;SDS011;8275;48.206;16.340;2023-07-16T13:33:51;2.83;;;2.63;;
16330;SDS011;8275;48.206;16.340;2023-07-16T13:36:23;2.80;;;2.60;;
16330;SDS011;8275;48.206;16.340;2023-07-16T13:38:53;3.20;;;3.00;;
16330;SDS011;8275;48.206;16.340;2023-07-16T13:41:24;2.92;;;2.72;;
16330;SDS011;8275;48.206;16.340;2023-07-16T13:43:54;2.65;;;2.53;;
16330;SDS011;8275;48.206;16.340;2023-07-16T13:46:23;2.63;;;2.42;;
16330;SDS011;8275;48.206;16.340;2023-07-16T13:48:53;2.70;;;2.60;;
16330;SDS011;8275;48.206;16.340;2023-07-16T13:51:27;2.92;;;2.72;;
16330;SDS011;8275;48.206;16.340;2023-07-16T13:53:56;3.15;;;2.85;;
16330;SDS011;8275;48.206;16.340;2023-07-16T13:56:26;3.13;;;2.78;;
16330;SDS011;8275;48.206;16.340;2023-07-16T13:58:55;2.85;;;2.65;;
16330;SDS011;8275;48.206;16.340;2023-07-16T14:01:24;3.20;;;3.00;;
16330;SDS011;8275;48.206;16.340;2023-07-16T14:03:54;3.05;;;2.88;;
16330;SDS011;8275;48.206;16.340;2023-07-16T14:06:25;3.00;;;2.80;;
16330;SDS011;8275;48.206;16.340;2023-07-16T14:08:56;3.33;;;3.10;;
16330;SDS011;8275;48.206;16.340;2023-07-16T14:11:25;2.40;;;2.30;;
16330;SDS011;8275;48.206;16.340;2023-07-16T14:13:55;3.60;;;2.90;;
16330;SDS011;8275;48.206;16.340;2023-07-16T14:16:24;2.42;;;2.33;;
16330;SDS011;8275;48.206;16.340;2023-07-16T14:18:54;3.78;;;2.70;;
16330;SDS011;8275;48.206;16.340;2023-07-16T14:21:23;5.25;;;2.53;;
16330;SDS011;8275;48.206;16.340;2023-07-16T14:23:54;3.05;;;2.85;;
16330;SDS011;8275;48.206;16.340;2023-07-16T14:26:23;2.20;;;2.10;;
16330;SDS011;8275;48.206;16.340;2023-07-16T14:28:51;3.05;;;2.85;;
16330;SDS011;8275;48.206;16.340;2023-07-16T14:31:20;2.70;;;2.60;;
16330;SDS011;8275;48.206;16.340;2023-07-16T14:33:49;2.70;;;2.50;;
16330;SDS011;8275;48.206;16.340;2023-07-16T14:36:19;4.05;;;2.70;;
16330;SDS011;8275;48.206;16.340;2023-07-16T14:38:49;3.33;;;3.13;;
16330;SDS011;8275;48.206;16.340;2023-07-16T14:41:20;2.97;;;2.78;;
16330;SDS011;8275;48.206;16.340;2023-07-16T14:43:49;3.38;;;2.80;;
16330;SDS011;8275;48.206;16.340;2023-07-16T14:46:22;5.07;;;2.85;;
16330;SDS011;8275;48.206;16.340;2023-07-16T14:48:52;2.63;;;2.53;;
16330;SDS011;8275;48.206;16.340;2023-07-16T14:51:23;2.67;;;2.47;;
16330;SDS011;8275;48.206;16.340;2023-07-16T14:53:52;2.10;;;2.00;;
16330;SDS011;8275;48.206;16.340;2023-07-16T14:56:25;2.45;;;2.25;;
16330;SDS011;8275;48.206;16.340;2023-07-16T14:58:55;2.30;;;2.20;;
16330;SDS011;8275;48.206;16.340;2023-07-16T15:01:25;2.20;;;2.10;;